createdAt,value
2023-02-14T00:01:57.646Z,16.15
2023-02-14T00:04:44.766Z,18.27
2023-02-14T00:07:31.082Z,18.80
2023-02-14T00:10:16.430Z,17.77
2023-02-14T00:13:01.552Z,15.13
2023-02-14T00:15:46.390Z,17.95
2023-02-14T00:18:50.106Z,18.80
2023-02-14T00:21:37.436Z,17.85
2023-02-14T00:24:25.364Z,20.63
2023-02-14T00:27:10.755Z,16.75
2023-02-14T00:29:58.540Z,17.58
2023-02-14T00:32:43.421Z,18.00
2023-02-14T00:35:28.808Z,18.25
2023-02-14T00:38:13.672Z,17.67
2023-02-14T00:40:59.240Z,17.65
2023-02-14T00:43:44.550Z,18.17
2023-02-14T00:46:29.737Z,23.00
2023-02-14T00:49:15.300Z,18.55
2023-02-14T00:52:00.141Z,22.58
2023-02-14T00:54:45.769Z,18.02
2023-02-14T00:57:30.718Z,21.63
2023-02-14T01:00:16.316Z,18.60
2023-02-14T01:03:01.467Z,20.05
2023-02-14T01:05:48.101Z,19.60
2023-02-14T01:08:33.469Z,19.30
2023-02-14T01:11:21.817Z,20.25
2023-02-14T01:14:06.724Z,18.70
2023-02-14T01:16:51.962Z,23.00
2023-02-14T01:19:38.206Z,19.52
2023-02-14T01:22:23.347Z,19.30
2023-02-14T01:25:08.291Z,19.75
2023-02-14T01:27:53.372Z,23.80
2023-02-14T01:30:39.103Z,21.02
2023-02-14T01:33:24.270Z,21.27
2023-02-14T01:36:19.659Z,19.80
2023-02-14T01:39:12.230Z,21.77
2023-02-14T01:41:57.824Z,18.42
2023-02-14T01:45:05.196Z,21.17
2023-02-14T01:47:54.202Z,17.60
2023-02-14T01:50:42.621Z,18.70
2023-02-14T01:53:28.988Z,18.17
2023-02-14T01:56:21.024Z,18.83
2023-02-14T01:59:10.072Z,17.05
2023-02-14T02:01:55.856Z,20.90
2023-02-14T02:04:46.196Z,22.67
2023-02-14T02:07:31.712Z,20.42
2023-02-14T02:10:17.436Z,20.55
2023-02-14T02:13:06.465Z,18.58
2023-02-14T02:16:19.493Z,18.23
2023-02-14T02:19:23.714Z,19.90
2023-02-14T02:22:30.496Z,18.98
2023-02-14T02:25:50.473Z,20.10
2023-02-14T02:29:08.199Z,20.65
2023-02-14T02:32:32.048Z,18.33
2023-02-14T02:35:41.710Z,19.38
2023-02-14T02:38:45.363Z,20.63
2023-02-14T02:41:48.353Z,19.58
2023-02-14T02:44:42.307Z,16.27
2023-02-14T02:47:53.436Z,20.98
2023-02-14T02:51:02.795Z,18.10
2023-02-14T02:53:55.148Z,20.17
2023-02-14T02:56:53.707Z,23.15
2023-02-14T02:59:43.680Z,21.73
2023-02-14T03:02:33.190Z,21.48
2023-02-14T03:05:18.690Z,21.85
2023-02-14T03:08:05.131Z,21.20
2023-02-14T03:10:49.957Z,22.00
2023-02-14T03:13:48.985Z,20.80
2023-02-14T03:17:08.051Z,20.27
2023-02-14T03:20:16.619Z,20.15
2023-02-14T03:23:30.223Z,21.13
2023-02-14T03:26:20.159Z,21.70
2023-02-14T03:29:31.294Z,23.88
2023-02-14T03:32:31.169Z,19.65
2023-02-14T03:38:30.880Z,22.85
2023-02-14T03:41:22.975Z,21.80
2023-02-14T03:44:11.303Z,21.10
2023-02-14T03:47:02.993Z,21.95
2023-02-14T03:49:53.300Z,24.13
2023-02-14T03:52:40.009Z,25.05
2023-02-14T03:55:35.976Z,19.38
2023-02-14T03:58:30.610Z,20.50
2023-02-14T04:01:23.130Z,25.23
2023-02-14T04:04:10.214Z,24.75
2023-02-14T04:06:55.748Z,24.63
2023-02-14T04:09:40.766Z,23.15
2023-02-14T04:12:37.222Z,23.45
2023-02-14T04:15:22.549Z,21.92
2023-02-14T04:18:27.474Z,24.08
2023-02-14T04:21:12.561Z,22.33
2023-02-14T04:23:57.396Z,19.88
2023-02-14T04:26:53.887Z,24.52
2023-02-14T04:29:48.175Z,22.00
2023-02-14T04:35:18.238Z,22.25
2023-02-14T04:38:04.629Z,20.88
2023-02-14T04:40:50.253Z,26.20
2023-02-14T04:43:35.858Z,21.33
2023-02-14T04:46:20.861Z,21.42
2023-02-14T04:49:06.171Z,20.85
2023-02-14T04:51:51.037Z,21.77
2023-02-14T04:54:36.135Z,19.52
2023-02-14T04:57:20.831Z,20.30
2023-02-14T05:00:07.051Z,21.20
2023-02-14T05:02:52.313Z,18.77
2023-02-14T05:05:38.243Z,23.88
2023-02-14T05:08:23.269Z,20.00
2023-02-14T05:11:08.793Z,19.83
2023-02-14T05:13:54.082Z,20.70
2023-02-14T05:16:39.358Z,22.27
2023-02-14T05:19:24.975Z,20.15
2023-02-14T05:22:10.244Z,21.00
2023-02-14T05:24:54.995Z,19.75
2023-02-14T05:27:39.831Z,17.77
2023-02-14T05:30:27.817Z,20.15
2023-02-14T05:33:13.309Z,20.73
2023-02-14T05:36:00.967Z,21.80
2023-02-14T05:38:45.957Z,22.88
2023-02-14T05:41:31.175Z,19.50
2023-02-14T05:44:16.026Z,20.02
2023-02-14T05:47:00.913Z,20.63
2023-02-14T05:49:46.064Z,21.85
2023-02-14T05:52:30.813Z,21.55
2023-02-14T05:55:16.150Z,19.75
2023-02-14T05:58:01.164Z,17.77
2023-02-14T06:00:46.221Z,17.42
2023-02-14T06:03:31.354Z,22.10
2023-02-14T06:06:16.504Z,18.48
2023-02-14T06:09:01.209Z,19.45
2023-02-14T06:11:46.480Z,19.92
2023-02-14T06:14:31.339Z,17.05
2023-02-14T06:17:16.551Z,20.95
2023-02-14T06:20:02.204Z,17.67
2023-02-14T06:22:47.190Z,19.58
2023-02-14T06:25:32.825Z,20.45
2023-02-14T06:28:18.157Z,21.88
2023-02-14T06:31:03.454Z,21.40
2023-02-14T06:33:48.615Z,22.80
2023-02-14T06:36:33.863Z,19.65
2023-02-14T06:39:19.058Z,23.70
2023-02-14T06:42:04.314Z,23.45
2023-02-14T06:44:49.119Z,23.92
2023-02-14T06:47:35.253Z,22.73
2023-02-14T06:50:19.986Z,21.95
2023-02-14T06:53:06.295Z,23.48
2023-02-14T06:55:51.446Z,21.48
2023-02-14T06:58:36.641Z,21.15
2023-02-14T07:01:22.108Z,21.05
2023-02-14T07:04:07.331Z,20.20
2023-02-14T07:06:52.577Z,19.60
2023-02-14T07:09:37.440Z,22.40
2023-02-14T07:12:22.503Z,24.27
2023-02-14T07:15:09.522Z,25.60
2023-02-14T07:17:54.831Z,21.20
2023-02-14T07:20:39.871Z,21.38
2023-02-14T07:23:25.153Z,22.45
2023-02-14T07:26:10.197Z,20.60
2023-02-14T07:28:55.633Z,19.35
2023-02-14T07:31:40.621Z,22.17
2023-02-14T07:34:27.446Z,21.80
2023-02-14T07:37:12.306Z,20.95
2023-02-14T07:39:57.230Z,18.15
2023-02-14T07:42:43.381Z,22.65
2023-02-14T07:45:28.188Z,22.45
2023-02-14T07:48:13.391Z,24.05
2023-02-14T07:50:58.569Z,22.70
2023-02-14T07:53:44.296Z,26.30
2023-02-14T07:56:29.575Z,21.45
2023-02-14T07:59:14.844Z,21.17
2023-02-14T08:01:59.676Z,18.58
2023-02-14T08:04:44.700Z,23.58
2023-02-14T08:07:29.591Z,22.90
2023-02-14T08:10:15.503Z,21.70
2023-02-14T08:13:00.816Z,24.02
2023-02-14T08:16:04.601Z,21.55
2023-02-14T08:18:49.653Z,22.65
2023-02-14T08:21:34.564Z,21.17
2023-02-14T08:24:19.604Z,23.65
2023-02-14T08:27:04.672Z,30.10
2023-02-14T08:29:49.543Z,30.10
2023-02-14T08:32:34.752Z,64.88
2023-02-14T08:35:19.931Z,27.42
2023-02-14T08:38:05.225Z,32.75
2023-02-14T08:40:50.529Z,23.98
2023-02-14T08:43:35.279Z,19.45
2023-02-14T08:46:20.353Z,16.02
2023-02-14T08:49:05.176Z,19.58
2023-02-14T08:51:50.146Z,15.85
2023-02-14T08:54:35.297Z,16.63
2023-02-14T08:57:20.562Z,13.38
2023-02-14T09:00:06.959Z,17.00
2023-02-14T09:02:53.124Z,14.25
2023-02-14T09:05:38.482Z,11.70
2023-02-14T09:08:23.332Z,13.70
2023-02-14T09:11:10.161Z,14.05
2023-02-14T09:13:55.884Z,17.25
2023-02-14T09:16:44.067Z,14.07
2023-02-14T09:19:28.925Z,12.98
2023-02-14T09:22:14.183Z,13.68
2023-02-14T09:24:59.340Z,12.13
2023-02-14T09:27:44.395Z,12.70
2023-02-14T09:30:29.305Z,14.48
2023-02-14T09:33:14.974Z,11.98
2023-02-14T09:36:18.861Z,13.60
2023-02-14T09:39:04.067Z,16.45
2023-02-14T09:42:15.804Z,12.98
2023-02-14T09:45:05.073Z,14.57
2023-02-14T09:48:08.397Z,13.05
2023-02-14T09:51:00.106Z,13.43
2023-02-14T09:54:09.232Z,14.18
2023-02-14T09:57:13.857Z,13.02
2023-02-14T10:00:16.738Z,12.60
2023-02-14T10:03:24.583Z,15.27
2023-02-14T10:06:15.795Z,10.63
2023-02-14T10:09:22.855Z,12.68
2023-02-14T10:12:19.469Z,11.77
2023-02-14T10:15:14.077Z,13.65
2023-02-14T10:18:09.806Z,14.15
2023-02-14T10:20:59.706Z,13.40
2023-02-14T10:23:57.571Z,13.85
2023-02-14T10:26:42.420Z,15.48
2023-02-14T10:29:28.178Z,13.77
2023-02-14T10:32:15.021Z,14.48
2023-02-14T10:35:06.237Z,15.07
2023-02-14T10:38:30.446Z,14.65
2023-02-14T10:41:48.393Z,14.30
2023-02-14T10:44:42.414Z,12.73
2023-02-14T10:47:54.654Z,15.95
2023-02-14T10:50:48.500Z,12.48
2023-02-14T10:54:01.841Z,12.30
2023-02-14T10:56:58.182Z,11.02
2023-02-14T11:00:01.236Z,11.32
2023-02-14T11:02:50.728Z,13.55
2023-02-14T11:05:40.476Z,11.32
2023-02-14T11:08:33.057Z,10.40
2023-02-14T11:11:37.169Z,11.10
2023-02-14T11:14:28.526Z,11.25
2023-02-14T11:17:31.429Z,10.30
2023-02-14T11:20:22.513Z,11.60
2023-02-14T11:23:21.559Z,12.23
2023-02-14T11:26:12.386Z,10.00
2023-02-14T11:29:00.962Z,9.98
2023-02-14T11:31:46.135Z,11.52
2023-02-14T11:35:05.690Z,10.75
2023-02-14T11:37:53.428Z,10.02
2023-02-14T11:40:40.280Z,8.10
2023-02-14T11:43:36.448Z,10.10
2023-02-14T11:46:21.338Z,8.93
2023-02-14T11:49:24.638Z,9.55
2023-02-14T11:52:11.648Z,10.27
2023-02-14T11:57:42.691Z,9.80
2023-02-14T12:00:34.081Z,8.05
2023-02-14T12:03:19.814Z,8.38
2023-02-14T12:06:06.584Z,9.38
2023-02-14T12:08:52.170Z,10.15
2023-02-14T12:11:37.661Z,7.43
2023-02-14T12:14:24.334Z,8.32
2023-02-14T12:17:29.235Z,8.55
2023-02-14T12:20:17.272Z,9.85
2023-02-14T12:23:15.069Z,8.07
2023-02-14T12:26:14.429Z,11.25
2023-02-14T12:29:26.287Z,8.23
2023-02-14T12:32:33.017Z,7.72
2023-02-14T12:35:41.004Z,8.65
2023-02-14T12:39:05.024Z,8.13
2023-02-14T12:42:28.211Z,8.35
2023-02-14T12:45:32.180Z,8.55
2023-02-14T12:48:38.858Z,8.07
2023-02-14T12:51:34.471Z,7.68
2023-02-14T12:54:46.863Z,8.00
2023-02-14T12:57:54.759Z,10.85
2023-02-14T13:00:59.433Z,10.25
2023-02-14T13:04:03.847Z,6.90
2023-02-14T13:06:57.400Z,9.68
2023-02-14T13:10:12.505Z,10.45
2023-02-14T13:13:48.183Z,11.45
2023-02-14T13:16:33.680Z,11.15
2023-02-14T13:19:43.285Z,10.18
2023-02-14T13:22:31.160Z,10.73
2023-02-14T13:25:33.391Z,12.52
2023-02-14T13:28:19.978Z,14.27
2023-02-14T13:31:05.887Z,15.05
2023-02-14T13:33:56.673Z,13.18
2023-02-14T13:36:44.078Z,15.27
2023-02-14T13:39:38.676Z,16.33
2023-02-14T13:42:52.960Z,14.13
2023-02-14T13:45:41.898Z,15.60
2023-02-14T13:48:29.344Z,18.20
2023-02-14T13:51:14.645Z,19.58
2023-02-14T13:54:00.359Z,20.60
2023-02-14T13:56:45.361Z,21.88
2023-02-14T13:59:36.381Z,24.50
2023-02-14T14:02:29.831Z,21.80
2023-02-14T14:05:30.928Z,27.70
2023-02-14T14:08:26.677Z,29.10
2023-02-14T14:11:11.969Z,30.50
2023-02-14T14:14:02.061Z,28.02
2023-02-14T14:16:58.798Z,27.25
2023-02-14T14:19:46.228Z,27.13
2023-02-14T14:22:31.861Z,32.97
2023-02-14T14:25:37.781Z,26.48
2023-02-14T14:28:25.793Z,27.23
2023-02-14T14:31:13.539Z,30.90
2023-02-14T14:34:01.939Z,30.70
2023-02-14T14:36:47.229Z,32.85
2023-02-14T14:39:34.555Z,29.25
2023-02-14T14:42:22.020Z,31.83
2023-02-14T14:45:19.491Z,30.55
2023-02-14T14:48:12.576Z,33.97
2023-02-14T14:50:59.105Z,32.42
2023-02-14T14:53:51.355Z,32.58
2023-02-14T14:56:50.212Z,33.80
2023-02-14T14:59:40.487Z,32.25
2023-02-14T15:02:27.836Z,35.05
2023-02-14T15:05:27.407Z,28.77
2023-02-14T15:08:35.979Z,32.67
2023-02-14T15:11:47.177Z,35.03
2023-02-14T15:14:36.257Z,34.33
2023-02-14T15:17:27.108Z,33.67
2023-02-14T15:20:17.658Z,37.88
2023-02-14T15:23:05.234Z,35.42
2023-02-14T15:25:51.789Z,36.20
2023-02-14T15:28:38.480Z,41.17
2023-02-14T15:31:27.938Z,36.17
2023-02-14T15:34:14.640Z,35.13
2023-02-14T15:37:05.940Z,35.03
2023-02-14T15:39:56.827Z,32.83
2023-02-14T15:42:44.587Z,37.83
2023-02-14T15:45:31.234Z,35.58
2023-02-14T15:48:22.144Z,33.92
2023-02-14T15:51:15.576Z,36.90
2023-02-14T15:54:03.751Z,38.60
2023-02-14T15:56:52.491Z,35.38
2023-02-14T15:59:42.803Z,36.08
2023-02-14T16:02:33.262Z,36.75
2023-02-14T16:05:20.897Z,36.63
2023-02-14T16:08:22.909Z,36.33
2023-02-14T16:11:40.706Z,39.35
2023-02-14T16:14:35.803Z,38.25
2023-02-14T16:17:32.617Z,42.08
2023-02-14T16:20:21.511Z,37.63
2023-02-14T16:23:25.701Z,39.38
2023-02-14T16:26:11.885Z,40.00
2023-02-14T16:28:56.722Z,42.50
2023-02-14T16:35:00.406Z,38.15
2023-02-14T16:37:47.324Z,44.00
2023-02-14T16:40:32.328Z,41.50
2023-02-14T16:43:18.976Z,42.22
2023-02-14T16:46:03.923Z,42.20
2023-02-14T16:48:53.027Z,38.30
2023-02-14T16:51:43.121Z,42.75
2023-02-14T16:54:28.485Z,44.22
2023-02-14T16:57:20.601Z,45.67
2023-02-14T17:00:07.141Z,41.60
2023-02-14T17:02:53.971Z,37.90
2023-02-14T17:05:42.017Z,40.20
2023-02-14T17:08:28.166Z,43.95
2023-02-14T17:11:13.488Z,38.95
2023-02-14T17:13:58.633Z,41.17
2023-02-14T17:16:43.866Z,43.20
2023-02-14T17:19:28.982Z,37.35
2023-02-14T17:22:14.592Z,39.80
2023-02-14T17:24:59.611Z,45.45
2023-02-14T17:27:46.186Z,45.22
2023-02-14T17:30:31.489Z,39.22
2023-02-14T17:33:16.539Z,37.83
2023-02-14T17:36:13.129Z,40.90
2023-02-14T17:38:57.998Z,43.42
2023-02-14T17:41:43.295Z,42.42
2023-02-14T17:44:32.873Z,41.38
2023-02-14T17:47:18.356Z,42.20
2023-02-14T17:50:04.153Z,42.83
2023-02-14T17:52:53.597Z,40.60
2023-02-14T17:55:38.966Z,45.30
2023-02-14T17:58:26.425Z,43.17
2023-02-14T18:01:12.699Z,40.97
2023-02-14T18:03:59.199Z,39.97
2023-02-14T18:06:45.121Z,37.33
2023-02-14T18:09:30.332Z,43.28
2023-02-14T18:12:15.982Z,45.67
2023-02-14T18:15:00.801Z,43.85
2023-02-14T18:17:49.738Z,40.25
2023-02-14T18:20:35.064Z,43.50
2023-02-14T18:23:22.082Z,41.90
2023-02-14T18:26:11.878Z,42.95
2023-02-14T18:28:59.693Z,42.00
2023-02-14T18:31:45.370Z,46.45
2023-02-14T18:34:34.016Z,42.47
2023-02-14T18:37:21.422Z,42.85
2023-02-14T18:40:11.174Z,40.67
2023-02-14T18:42:56.145Z,40.13
2023-02-14T18:45:41.020Z,46.90
2023-02-14T18:48:27.629Z,46.47
2023-02-14T18:51:34.575Z,45.95
2023-02-14T18:54:19.794Z,43.00
2023-02-14T18:57:04.546Z,44.60
2023-02-14T18:59:49.561Z,46.83
2023-02-14T19:02:36.028Z,45.05
2023-02-14T19:05:21.253Z,41.90
2023-02-14T19:08:08.512Z,43.13
2023-02-14T19:10:55.124Z,43.95
2023-02-14T19:13:46.348Z,43.35
2023-02-14T19:16:33.665Z,44.13
2023-02-14T19:19:19.819Z,41.60
2023-02-14T19:22:07.659Z,47.05
2023-02-14T19:24:54.015Z,49.35
2023-02-14T19:27:40.433Z,39.13
2023-02-14T19:30:26.881Z,46.92
2023-02-14T19:33:11.864Z,44.65
2023-02-14T19:36:02.938Z,44.50
2023-02-14T19:38:53.276Z,50.58
2023-02-14T19:41:38.956Z,43.40
2023-02-14T19:44:25.723Z,46.13
2023-02-14T19:47:26.871Z,46.08
2023-02-14T19:50:17.054Z,39.88
2023-02-14T19:53:02.512Z,41.78
2023-02-14T19:55:54.175Z,43.05
2023-02-14T19:58:45.190Z,46.28
2023-02-14T20:01:33.374Z,42.95
2023-02-14T20:04:27.758Z,47.65
2023-02-14T20:07:16.045Z,40.40
2023-02-14T20:10:01.476Z,47.65
2023-02-14T20:12:46.773Z,41.33
2023-02-14T20:15:35.129Z,41.20
2023-02-14T20:18:20.417Z,45.20
2023-02-14T20:21:05.545Z,44.60
2023-02-14T20:23:52.735Z,44.50
2023-02-14T20:26:43.065Z,43.00
2023-02-14T20:29:32.412Z,42.78
2023-02-14T20:32:19.015Z,43.45
2023-02-14T20:35:06.184Z,41.60
2023-02-14T20:37:52.415Z,43.95
2023-02-14T20:40:39.952Z,40.30
2023-02-14T20:43:26.306Z,36.53
2023-02-14T20:46:14.495Z,41.80
2023-02-14T20:48:59.856Z,39.05
2023-02-14T20:51:47.953Z,35.28
2023-02-14T20:54:41.975Z,37.60
2023-02-14T21:00:20.085Z,41.55
2023-02-14T21:03:06.527Z,37.75
2023-02-14T21:05:51.522Z,44.15
2023-02-14T21:08:37.383Z,48.58
2023-02-14T21:11:24.181Z,40.65
2023-02-14T21:14:12.281Z,43.28
2023-02-14T21:16:57.445Z,41.92
2023-02-14T21:19:42.872Z,48.22
2023-02-14T21:22:27.856Z,46.50
2023-02-14T21:25:15.712Z,43.17
2023-02-14T21:28:01.296Z,46.42
2023-02-14T21:30:46.362Z,43.63
2023-02-14T21:33:35.640Z,46.00
2023-02-14T21:36:22.891Z,45.50
2023-02-14T21:39:09.643Z,44.50
2023-02-14T21:41:56.224Z,45.33
2023-02-14T21:44:59.726Z,47.42
2023-02-14T21:48:04.982Z,46.50
2023-02-14T21:50:49.977Z,46.72
2023-02-14T21:53:35.119Z,50.25
2023-02-14T21:56:22.062Z,40.83
2023-02-14T21:59:07.501Z,39.80
2023-02-14T22:01:53.439Z,44.00
2023-02-14T22:04:40.805Z,43.47
2023-02-14T22:07:29.093Z,43.50
2023-02-14T22:10:13.964Z,46.85
2023-02-14T22:12:58.626Z,45.15
2023-02-14T22:15:43.468Z,44.17
2023-02-14T22:18:28.948Z,38.75
2023-02-14T22:21:17.698Z,43.22
2023-02-14T22:24:03.802Z,47.92
2023-02-14T22:26:48.907Z,41.95
2023-02-14T22:29:33.937Z,58.50
2023-02-14T22:32:20.210Z,50.42
2023-02-14T22:35:05.884Z,40.75
2023-02-14T22:37:51.023Z,40.03
2023-02-14T22:40:36.285Z,40.05
2023-02-14T22:43:22.414Z,45.90
2023-02-14T22:46:10.249Z,43.10
2023-02-14T22:48:56.354Z,45.67
2023-02-14T22:51:42.157Z,45.17
2023-02-14T22:54:27.337Z,68.38
2023-02-14T22:57:12.051Z,54.38
2023-02-14T22:59:57.920Z,52.05
2023-02-14T23:02:42.706Z,58.22
2023-02-14T23:05:27.680Z,66.07
2023-02-14T23:08:12.637Z,52.40
2023-02-14T23:10:57.446Z,52.75
2023-02-14T23:14:01.860Z,61.92
2023-02-14T23:17:05.673Z,56.63
2023-02-14T23:20:09.435Z,49.58
2023-02-14T23:22:54.580Z,56.33
2023-02-14T23:25:43.396Z,58.03
2023-02-14T23:28:28.301Z,47.35
2023-02-14T23:31:13.231Z,62.63
2023-02-14T23:33:58.020Z,36.80
2023-02-14T23:36:43.049Z,37.33
2023-02-14T23:39:28.467Z,48.50
2023-02-14T23:42:14.713Z,37.78
2023-02-14T23:45:20.181Z,37.17
2023-02-14T23:48:05.480Z,42.75
2023-02-14T23:50:51.455Z,44.78
2023-02-14T23:53:36.456Z,36.50
2023-02-14T23:56:21.477Z,45.08
2023-02-14T23:59:07.673Z,35.75
